Time;durP1;ratioP1;P1;durP2;ratioP2;P2;SDS_P1;SDS_P2;PMS_P1;PMS_P2;Temp;Humidity;BMP_temperature;BMP_pressure;BME280_temperature;BME280_humidity;BME280_pressure;Samples;Min_cycle;Max_cycle;Signal;HPM_P1;HPM_P2
2023/09/09 00:02:07;;;;;;;0.50;0.50;;;;;;;9.25;83.94;99570.31;6243429;23;20056;-83
2023/09/09 00:04:34;;;;;;;0.60;0.60;;;;;;;9.25;84.12;99578.41;6243290;23;20406;-84
2023/09/09 00:07:03;;;;;;;0.60;0.60;;;;;;;9.25;84.02;99583.78;6243759;23;20024;-83
2023/09/09 00:09:30;;;;;;;0.68;0.68;;;;;;;9.27;84.14;99578.19;6217224;23;20020;-83
2023/09/09 00:11:57;;;;;;;0.60;0.60;;;;;;;9.27;84.10;99586.28;6216622;23;20028;-84
2023/09/09 00:14:25;;;;;;;0.60;0.60;;;;;;;9.24;84.23;99581.31;6243876;23;20511;-82
2023/09/09 00:16:52;;;;;;;0.60;0.60;;;;;;;9.21;84.52;99587.16;6220066;23;20020;-84
2023/09/09 00:19:21;;;;;;;0.50;0.50;;;;;;;9.16;84.61;99587.00;6245671;23;20024;-83
2023/09/09 00:21:49;;;;;;;0.60;0.60;;;;;;;9.12;84.74;99581.22;6243649;23;20325;-83
2023/09/09 00:24:17;;;;;;;0.60;0.60;;;;;;;9.07;85.16;99584.56;6243207;23;20024;-84
2023/09/09 00:26:45;;;;;;;0.60;0.60;;;;;;;9.04;85.39;99603.03;6243455;23;20340;-83
2023/09/09 00:29:14;;;;;;;0.60;0.60;;;;;;;9.04;85.58;99595.78;6142857;23;20024;-83
2023/09/09 00:31:41;;;;;;;0.60;0.60;;;;;;;9.06;85.65;99595.56;6242893;23;20031;-83
2023/09/09 00:34:09;;;;;;;0.55;0.55;;;;;;;9.10;85.76;99591.41;6243208;23;20024;-82
2023/09/09 00:36:36;;;;;;;0.60;0.60;;;;;;;9.11;85.66;99598.41;6216655;23;20024;-83
2023/09/09 00:39:04;;;;;;;0.60;0.60;;;;;;;9.14;85.67;99605.22;6191641;23;20031;-83
2023/09/09 00:41:31;;;;;;;0.60;0.60;;;;;;;9.14;85.83;99607.91;6216418;23;20020;-84
2023/09/09 00:43:59;;;;;;;0.60;0.60;;;;;;;9.14;85.85;99608.78;6216444;23;20097;-84
2023/09/09 00:46:29;;;;;;;0.50;0.50;;;;;;;9.14;85.77;99606.06;6242986;23;20523;-84
2023/09/09 00:48:56;;;;;;;0.60;0.60;;;;;;;9.11;85.75;99596.56;6209876;23;20033;-83
2023/09/09 00:51:23;;;;;;;0.60;0.60;;;;;;;9.09;86.17;99601.34;6184255;23;20024;-84
2023/09/09 00:53:50;;;;;;;0.60;0.60;;;;;;;9.03;86.05;99602.22;6209812;23;20538;-83
2023/09/09 00:56:17;;;;;;;0.50;0.50;;;;;;;9.01;86.35;99603.47;6209530;23;20020;-84
2023/09/09 00:58:44;;;;;;;0.50;0.50;;;;;;;8.96;86.30;99601.44;6184755;23;20031;-83
2023/09/09 01:01:12;;;;;;;0.60;0.60;;;;;;;8.84;86.66;99606.72;6209646;23;20100;-84
2023/09/09 01:03:39;;;;;;;0.60;0.60;;;;;;;8.81;86.96;99611.69;6184535;23;20399;-83
2023/09/09 01:06:07;;;;;;;0.70;0.70;;;;;;;8.79;87.01;99619.19;6184136;23;20051;-83
2023/09/09 01:08:35;;;;;;;0.60;0.60;;;;;;;8.79;87.17;99616.50;6184718;23;20045;-82
2023/09/09 01:11:02;;;;;;;0.60;0.60;;;;;;;8.76;87.37;99616.91;6184339;23;20021;-83
2023/09/09 01:13:29;;;;;;;0.60;0.60;;;;;;;8.81;87.27;99622.47;6184940;23;20422;-82
2023/09/09 01:15:59;;;;;;;0.60;0.60;;;;;;;8.89;87.23;99633.00;6209763;23;20136;-82
2023/09/09 01:18:28;;;;;;;0.60;0.60;;;;;;;8.94;87.02;99638.53;6209513;23;20032;-83
2023/09/09 01:21:06;;;;;;;0.50;0.50;;;;;;;8.90;86.90;99627.38;6184527;23;20079;-83
2023/09/09 01:23:33;;;;;;;0.60;0.60;;;;;;;8.85;87.14;99631.75;6184825;23;20055;-82
2023/09/09 01:26:01;;;;;;;0.60;0.60;;;;;;;8.83;87.27;99639.22;6220864;23;20028;-84
2023/09/09 01:28:28;;;;;;;0.60;0.60;;;;;;;8.86;87.55;99630.69;6243014;23;20074;-83
2023/09/09 01:30:56;;;;;;;0.60;0.60;;;;;;;8.79;87.30;99611.13;6243436;23;20028;-84
2023/09/09 01:33:26;;;;;;;0.50;0.50;;;;;;;8.63;87.85;99624.06;6242978;23;20024;-83
2023/09/09 01:35:53;;;;;;;0.50;0.50;;;;;;;8.53;88.52;99617.47;6191651;23;20463;-83
2023/09/09 01:38:23;;;;;;;0.60;0.60;;;;;;;8.47;88.76;99613.78;6242788;23;20463;-83
2023/09/09 01:40:50;;;;;;;0.60;0.60;;;;;;;8.49;89.09;99624.34;6216591;23;20092;-83
2023/09/09 01:43:17;;;;;;;0.60;0.60;;;;;;;8.48;88.98;99626.19;6242998;23;20483;-83
2023/09/09 01:45:48;;;;;;;0.60;0.60;;;;;;;8.50;89.18;99628.66;6216860;23;20058;-83
2023/09/09 01:48:15;;;;;;;0.60;0.60;;;;;;;8.48;89.26;99631.56;6243003;23;20020;-83
2023/09/09 01:50:46;;;;;;;0.60;0.60;;;;;;;8.48;89.50;99633.44;6242803;22;20027;-82
2023/09/09 01:53:13;;;;;;;0.50;0.50;;;;;;;8.41;89.65;99634.31;6242962;23;20103;-83
2023/09/09 01:55:40;;;;;;;0.60;0.60;;;;;;;8.39;90.11;99636.38;6218779;23;20024;-83
2023/09/09 01:58:07;;;;;;;0.60;0.60;;;;;;;8.33;90.42;99631.84;6168440;23;20026;-82
2023/09/09 02:00:34;;;;;;;0.60;0.60;;;;;;;8.31;90.45;99627.72;6217777;23;20024;-83
2023/09/09 02:03:02;;;;;;;0.60;0.60;;;;;;;8.36;90.84;99630.59;6217891;23;20107;-83
2023/09/09 02:05:34;;;;;;;0.60;0.60;;;;;;;8.36;90.84;99639.47;6219395;23;20053;-83
2023/09/09 02:08:01;;;;;;;0.60;0.60;;;;;;;8.38;90.91;99637.41;6217917;23;20270;-83
2023/09/09 02:10:29;;;;;;;0.60;0.60;;;;;;;8.40;90.90;99629.13;6217788;23;20430;-84
2023/09/09 02:12:56;;;;;;;0.60;0.60;;;;;;;8.43;90.91;99634.06;6192732;23;20034;-83
2023/09/09 02:15:23;;;;;;;0.60;0.60;;;;;;;8.45;90.71;99632.00;6217612;23;20054;-83
2023/09/09 02:17:51;;;;;;;0.60;0.60;;;;;;;8.50;90.43;99642.13;6244323;23;20047;-83
2023/09/09 02:20:19;;;;;;;0.60;0.60;;;;;;;8.54;90.47;99656.81;6244212;23;20024;-83
2023/09/09 02:22:46;;;;;;;0.60;0.60;;;;;;;8.56;90.50;99660.94;6218082;23;20470;-83
2023/09/09 02:25:13;;;;;;;0.60;0.60;;;;;;;8.59;90.28;99655.09;6217664;23;20023;-82
2023/09/09 02:27:40;;;;;;;0.70;0.70;;;;;;;8.58;90.27;99655.31;6217908;23;20024;-83
2023/09/09 02:30:07;;;;;;;0.60;0.60;;;;;;;8.52;90.45;99654.31;6192698;23;20050;-82
2023/09/09 02:32:35;;;;;;;0.60;0.60;;;;;;;8.49;90.61;99667.38;6244404;23;20024;-83
2023/09/09 02:35:03;;;;;;;0.60;0.60;;;;;;;8.50;90.93;99667.16;6244796;23;20463;-82
2023/09/09 02:37:32;;;;;;;0.60;0.60;;;;;;;8.51;90.88;99674.19;6217519;23;20028;-82
2023/09/09 02:39:59;;;;;;;0.63;0.63;;;;;;;8.51;91.06;99671.50;6244709;23;20030;-82
2023/09/09 02:42:26;;;;;;;0.60;0.60;;;;;;;8.56;91.01;99670.84;6245120;23;20074;-82
2023/09/09 02:44:58;;;;;;;0.68;0.68;;;;;;;8.54;91.05;99671.06;6229256;23;20028;-83
2023/09/09 02:47:30;;;;;;;0.50;0.50;;;;;;;8.57;91.00;99677.88;6226664;23;20024;-82
2023/09/09 02:49:57;;;;;;;0.60;0.60;;;;;;;8.60;90.94;99675.56;6218790;23;20020;-83
2023/09/09 02:52:36;;;;;;;0.60;0.60;;;;;;;8.60;90.99;99678.28;6219118;23;20024;-83
2023/09/09 02:55:32;;;;;;;0.60;0.60;;;;;;;8.67;91.00;99683.63;6194458;23;20020;-83
2023/09/09 02:57:59;;;;;;;0.60;0.60;;;;;;;8.65;90.88;99691.09;6219083;23;20078;-84
2023/09/09 03:00:27;;;;;;;0.60;0.60;;;;;;;8.66;90.98;99688.19;6193822;23;20024;-84
2023/09/09 03:02:54;;;;;;;0.60;0.60;;;;;;;8.65;90.74;99689.22;6219021;23;20024;-83
2023/09/09 03:05:25;;;;;;;0.60;0.60;;;;;;;8.63;90.80;99683.25;6218423;23;20028;-83
2023/09/09 03:07:52;;;;;;;0.60;0.60;;;;;;;8.67;90.76;99692.53;6246586;23;20016;-82
2023/09/09 03:10:19;;;;;;;0.60;0.60;;;;;;;8.74;90.68;99694.38;6247050;23;20031;-84
2023/09/09 03:12:46;;;;;;;0.60;0.60;;;;;;;8.77;90.57;99696.63;6245876;23;20020;-84
2023/09/09 03:15:14;;;;;;;0.60;0.60;;;;;;;8.77;90.33;99692.06;6219982;23;20054;-83
2023/09/09 03:17:41;;;;;;;0.60;0.60;;;;;;;8.79;90.06;99697.25;6249488;23;20020;-84
2023/09/09 03:20:08;;;;;;;0.60;0.60;;;;;;;8.73;89.93;99696.22;6217388;23;20030;-83
2023/09/09 03:22:36;;;;;;;0.60;0.60;;;;;;;8.68;90.40;99699.56;6244138;23;20031;-83
2023/09/09 03:25:03;;;;;;;0.50;0.50;;;;;;;8.73;90.20;99706.16;6244699;23;20031;-84
2023/09/09 03:27:32;;;;;;;0.60;0.60;;;;;;;8.79;90.17;99708.81;6220706;23;20020;-84
2023/09/09 03:29:59;;;;;;;0.60;0.60;;;;;;;8.81;90.02;99706.75;6220560;23;20471;-84
2023/09/09 03:32:31;;;;;;;0.60;0.60;;;;;;;8.81;90.03;99712.13;6245386;23;20023;-84
2023/09/09 03:35:02;;;;;;;0.60;0.60;;;;;;;8.72;90.18;99691.88;6244541;23;20031;-84
2023/09/09 03:37:31;;;;;;;0.60;0.60;;;;;;;8.85;90.09;99713.31;6218196;23;20039;-84
2023/09/09 03:39:59;;;;;;;0.60;0.60;;;;;;;8.93;89.84;99717.63;6217493;23;20078;-83
2023/09/09 03:42:26;;;;;;;0.60;0.60;;;;;;;8.98;89.52;99723.19;6191621;23;20024;-83
2023/09/09 03:44:54;;;;;;;0.60;0.60;;;;;;;8.97;89.17;99724.25;6217552;23;20052;-83
2023/09/09 03:47:22;;;;;;;0.60;0.60;;;;;;;8.94;89.34;99724.69;6217605;23;20020;-84
2023/09/09 03:49:52;;;;;;;0.60;0.60;;;;;;;8.94;89.34;99724.69;6244107;23;20020;-84
2023/09/09 03:52:22;;;;;;;0.60;0.60;;;;;;;8.92;89.50;99724.06;6244749;22;20406;-81
2023/09/09 03:54:49;;;;;;;0.60;0.60;;;;;;;8.95;89.12;99726.31;6217660;23;20106;-82
2023/09/09 03:57:17;;;;;;;0.60;0.60;;;;;;;8.93;89.16;99733.78;6244425;23;20031;-82
2023/09/09 03:59:47;;;;;;;0.60;0.60;;;;;;;9.00;89.15;99736.44;6243715;23;20099;-83
2023/09/09 04:02:14;;;;;;;0.60;0.60;;;;;;;9.09;88.95;99738.69;6217663;23;20020;-82
2023/09/09 04:04:41;;;;;;;0.60;0.60;;;;;;;9.08;88.62;99733.50;6217694;23;20027;-82
2023/09/09 04:07:09;;;;;;;0.55;0.55;;;;;;;9.00;88.83;99731.88;6243704;23;20028;-82
2023/09/09 04:09:40;;;;;;;0.60;0.60;;;;;;;8.89;89.06;99729.91;6243848;23;20024;-82
2023/09/09 04:12:09;;;;;;;0.60;0.60;;;;;;;8.79;89.45;99740.28;6216415;23;20447;-83
2023/09/09 04:14:39;;;;;;;0.60;0.60;;;;;;;8.75;89.77;99734.50;6216944;23;20027;-82
2023/09/09 04:17:07;;;;;;;0.60;0.60;;;;;;;8.75;89.75;99731.81;6243613;23;20024;-81
2023/09/09 04:19:35;;;;;;;0.70;0.70;;;;;;;8.85;89.70;99734.88;6218255;23;20031;-81
2023/09/09 04:22:05;;;;;;;0.60;0.60;;;;;;;8.95;89.35;99741.66;6217839;23;20024;-82
2023/09/09 04:24:33;;;;;;;0.60;0.60;;;;;;;8.95;89.34;99741.66;6217798;23;20024;-83
2023/09/09 04:27:00;;;;;;;0.60;0.60;;;;;;;8.93;89.32;99746.41;6243918;23;20024;-83
2023/09/09 04:29:28;;;;;;;0.65;0.65;;;;;;;8.93;89.38;99739.16;6216786;23;20103;-82
2023/09/09 04:31:58;;;;;;;0.70;0.70;;;;;;;9.11;88.98;99738.44;6216866;23;20024;-83
2023/09/09 04:34:30;;;;;;;0.60;0.60;;;;;;;9.13;88.54;99732.84;6217152;23;20499;-83
2023/09/09 04:36:58;;;;;;;0.60;0.60;;;;;;;9.21;88.32;99729.88;6216749;23;20031;-83
2023/09/09 04:39:25;;;;;;;0.70;0.70;;;;;;;9.33;87.92;99739.75;6216181;23;20044;-82
2023/09/09 04:41:52;;;;;;;0.70;0.70;;;;;;;9.44;87.11;99738.19;6243141;23;20028;-83
2023/09/09 04:44:19;;;;;;;0.60;0.60;;;;;;;9.53;86.70;99741.47;6216363;23;20078;-82
2023/09/09 04:46:47;;;;;;;0.60;0.60;;;;;;;9.62;86.18;99745.53;6216872;23;20109;-81
2023/09/09 04:49:17;;;;;;;0.60;0.60;;;;;;;9.69;85.03;99756.25;6242779;23;20039;-82
2023/09/09 04:51:45;;;;;;;0.60;0.60;;;;;;;9.77;84.31;99747.88;6241840;23;20024;-83
2023/09/09 04:54:14;;;;;;;0.60;0.60;;;;;;;9.86;83.55;99745.75;6216157;23;20075;-83
2023/09/09 04:56:41;;;;;;;0.60;0.60;;;;;;;9.94;82.69;99751.66;6191097;23;20030;-82
2023/09/09 04:59:12;;;;;;;0.60;0.60;;;;;;;9.94;82.13;99743.56;6243185;23;20063;-83
2023/09/09 05:01:39;;;;;;;0.60;0.60;;;;;;;9.96;81.87;99738.78;6216945;23;20355;-83
2023/09/09 05:04:07;;;;;;;0.60;0.60;;;;;;;10.02;81.83;99739.75;6125865;23;20025;-83
2023/09/09 05:06:35;;;;;;;0.60;0.60;;;;;;;10.11;81.38;99749.22;6125534;23;20448;-83
2023/09/09 05:09:02;;;;;;;0.60;0.60;;;;;;;10.11;80.84;99753.81;6125801;23;20021;-83
2023/09/09 05:11:30;;;;;;;0.60;0.60;;;;;;;10.23;80.61;99754.72;6149818;23;20068;-82
2023/09/09 05:14:00;;;;;;;0.60;0.60;;;;;;;10.36;80.64;99759.19;6101207;23;20138;-83
2023/09/09 05:16:29;;;;;;;0.60;0.60;;;;;;;10.57;79.93;99757.88;6149891;23;20028;-82
2023/09/09 05:18:57;;;;;;;0.60;0.60;;;;;;;10.63;78.40;99754.28;6100927;23;20499;-83
2023/09/09 05:21:24;;;;;;;0.60;0.60;;;;;;;10.66;77.84;99761.09;6125374;23;20161;-83
2023/09/09 05:23:52;;;;;;;0.70;0.70;;;;;;;10.76;76.51;99764.06;6149046;23;20036;-83
2023/09/09 05:26:20;;;;;;;0.60;0.60;;;;;;;10.85;75.38;99766.25;6149331;23;20030;-83
2023/09/09 05:28:48;;;;;;;0.60;0.60;;;;;;;10.88;74.47;99775.75;6150422;23;20108;-82
2023/09/09 05:31:16;;;;;;;0.60;0.60;;;;;;;11.04;74.08;99777.03;6126872;23;20025;-83
2023/09/09 05:33:46;;;;;;;0.60;0.60;;;;;;;11.10;73.22;99781.50;6127470;23;20036;-82
2023/09/09 05:36:16;;;;;;;0.60;0.60;;;;;;;11.22;72.98;99774.28;6211509;23;20095;-83
2023/09/09 05:38:43;;;;;;;0.60;0.60;;;;;;;11.32;71.75;99779.13;6211885;23;20478;-83
2023/09/09 05:41:11;;;;;;;0.60;0.60;;;;;;;11.21;70.46;99788.81;6211878;23;20031;-83
2023/09/09 05:43:38;;;;;;;0.50;0.50;;;;;;;11.15;69.90;99780.81;6214476;23;20483;-82
2023/09/09 05:46:06;;;;;;;0.60;0.60;;;;;;;11.28;70.57;99781.44;6186805;23;20028;-82
2023/09/09 05:48:36;;;;;;;0.60;0.60;;;;;;;11.35;69.17;99780.53;6213642;23;20503;-82
2023/09/09 05:51:04;;;;;;;0.60;0.60;;;;;;;11.36;69.08;99779.47;6187352;23;20104;-82
2023/09/09 05:53:32;;;;;;;0.70;0.70;;;;;;;11.53;69.16;99798.56;6212017;23;20020;-83
2023/09/09 05:55:59;;;;;;;0.70;0.70;;;;;;;11.70;68.17;99799.53;6187519;23;20363;-82
2023/09/09 05:58:27;;;;;;;0.60;0.60;;;;;;;11.76;66.48;99804.00;6211932;23;20027;-82
2023/09/09 06:00:54;;;;;;;0.70;0.70;;;;;;;11.84;66.91;99802.84;6210793;23;20051;-85
2023/09/09 06:03:26;;;;;;;0.50;0.50;;;;;;;12.10;66.27;99802.44;6213812;23;20044;-83
2023/09/09 06:05:54;;;;;;;0.60;0.60;;;;;;;12.03;65.61;99798.22;6235159;23;20052;-83
2023/09/09 06:08:21;;;;;;;0.60;0.60;;;;;;;12.06;65.61;99809.38;6212577;23;20035;-82
2023/09/09 06:10:49;;;;;;;0.60;0.60;;;;;;;11.90;65.35;99807.34;6214793;23;20020;-84
2023/09/09 06:13:16;;;;;;;0.50;0.50;;;;;;;11.81;65.68;99811.44;6214416;23;20027;-85
2023/09/09 06:15:43;;;;;;;0.60;0.60;;;;;;;11.61;65.66;99809.84;6214047;23;20059;-85
2023/09/09 06:18:12;;;;;;;0.50;0.50;;;;;;;11.63;65.42;99821.28;6187514;23;20020;-82
2023/09/09 06:20:45;;;;;;;0.52;0.52;;;;;;;11.69;65.38;99814.91;6186570;23;20073;-83
2023/09/09 06:23:16;;;;;;;0.60;0.60;;;;;;;11.77;65.38;99818.34;6186910;23;20021;-82
2023/09/09 06:25:43;;;;;;;0.60;0.60;;;;;;;11.88;64.54;99818.41;6188200;23;20024;-85
2023/09/09 06:28:11;;;;;;;0.57;0.57;;;;;;;11.73;63.58;99820.72;6187697;23;20029;-83
2023/09/09 06:30:42;;;;;;;0.70;0.70;;;;;;;11.61;64.10;99823.38;6214370;23;20024;-83
2023/09/09 06:33:10;;;;;;;0.60;0.60;;;;;;;11.76;64.77;99819.41;6187544;23;20044;-85
2023/09/09 06:35:46;;;;;;;0.60;0.60;;;;;;;11.95;64.39;99823.72;6187376;23;20396;-85
2023/09/09 06:38:14;;;;;;;0.60;0.60;;;;;;;12.18;63.68;99817.50;6175241;23;20021;-85
2023/09/09 06:40:45;;;;;;;0.60;0.60;;;;;;;12.36;61.86;99820.06;6235347;23;20028;-85
2023/09/09 06:43:17;;;;;;;0.60;0.60;;;;;;;12.61;61.29;99823.56;6138385;23;20016;-84
2023/09/09 06:45:47;;;;;;;;;;;;;;;13.00;60.68;99825.50;6214466;23;20020;-84
2023/09/09 06:48:18;;;;;;;0.60;0.60;;;;;;;13.24;59.16;99830.81;6213707;23;19920;-85
2023/09/09 06:50:48;;;;;;;0.60;0.60;;;;;;;13.28;57.77;99817.66;6212825;23;20024;-84
2023/09/09 06:53:16;;;;;;;0.60;0.60;;;;;;;13.40;57.88;99821.94;6199802;23;20024;-87
2023/09/09 06:55:47;;;;;;;0.60;0.60;;;;;;;13.31;57.36;99815.28;6187351;23;20115;-85
2023/09/09 06:58:14;;;;;;;0.60;0.60;;;;;;;13.15;56.92;99822.25;6213860;23;20021;-84
2023/09/09 07:00:43;;;;;;;0.60;0.60;;;;;;;13.28;57.23;99820.38;6187627;23;20025;-84
2023/09/09 07:03:11;;;;;;;0.60;0.60;;;;;;;13.34;57.78;99831.06;6187211;23;20511;-84
2023/09/09 07:05:39;;;;;;;0.60;0.60;;;;;;;13.59;56.98;99817.13;6187423;23;20027;-84
2023/09/09 07:08:06;;;;;;;0.60;0.60;;;;;;;13.55;56.56;99820.59;6214355;23;20082;-82
2023/09/09 07:10:33;;;;;;;0.50;0.50;;;;;;;13.64;56.98;99832.66;6213807;23;20082;-83
2023/09/09 07:13:00;;;;;;;0.70;0.70;;;;;;;13.85;54.78;99826.53;6186498;23;20035;-85
2023/09/09 07:15:34;;;;;;;0.70;0.70;;;;;;;13.96;54.16;99824.00;6214138;23;20028;-84
2023/09/09 07:18:04;;;;;;;0.60;0.60;;;;;;;14.23;53.83;99841.25;6212580;23;20024;-84
2023/09/09 07:20:31;;;;;;;0.50;0.50;;;;;;;14.60;52.78;99851.59;6213125;23;20030;-83
2023/09/09 07:22:59;;;;;;;0.60;0.60;;;;;;;14.68;51.94;99848.44;6186981;23;20444;-85
2023/09/09 07:25:26;;;;;;;0.60;0.60;;;;;;;14.84;51.50;99851.38;6211021;23;20440;-85
2023/09/09 07:27:56;;;;;;;0.60;0.60;;;;;;;14.90;51.34;99853.09;6183157;23;20445;-85
2023/09/09 07:30:26;;;;;;;0.65;0.65;;;;;;;15.20;50.83;99849.09;6209187;23;20024;-86
2023/09/09 07:32:53;;;;;;;0.60;0.60;;;;;;;15.60;50.68;99857.69;6238016;23;20117;-84
2023/09/09 07:35:21;;;;;;;0.52;0.52;;;;;;;15.21;50.74;99864.31;6238969;23;20031;-82
2023/09/09 07:37:49;;;;;;;0.60;0.60;;;;;;;14.70;52.19;99876.19;6238844;23;20625;-85
2023/09/09 07:40:18;;;;;;;0.50;0.50;;;;;;;14.25;53.02;99863.53;6239291;23;20055;-85
2023/09/09 07:42:48;;;;;;;0.50;0.50;;;;;;;14.16;53.68;99856.88;6213518;23;20024;-86
2023/09/09 07:45:15;;;;;;;0.50;0.50;;;;;;;14.33;54.26;99878.63;6213140;23;20038;-83
2023/09/09 07:47:42;;;;;;;0.50;0.50;;;;;;;14.46;53.98;99872.00;6238320;23;20038;-87
2023/09/09 07:50:09;;;;;;;0.50;0.50;;;;;;;14.51;53.67;99872.09;6238902;23;20519;-83
2023/09/09 07:52:39;;;;;;;0.50;0.50;;;;;;;14.48;53.36;99876.13;6186332;23;20107;-83
2023/09/09 07:55:07;;;;;;;0.50;0.50;;;;;;;14.47;53.49;99865.50;6187491;23;20021;-85
2023/09/09 07:57:35;;;;;;;0.50;0.50;;;;;;;14.19;53.18;99875.38;6213259;23;20024;-82
2023/09/09 08:00:05;;;;;;;0.50;0.50;;;;;;;14.16;54.00;99883.22;6187217;23;20036;-82
2023/09/09 08:02:38;;;;;;;0.50;0.50;;;;;;;14.31;53.74;99883.47;6213672;23;20024;-86
2023/09/09 08:05:06;;;;;;;0.50;0.50;;;;;;;14.40;53.41;99886.56;6161865;23;20025;-83
2023/09/09 08:07:34;;;;;;;0.50;0.50;;;;;;;14.55;53.56;99884.13;6212001;23;20028;-84
2023/09/09 08:10:01;;;;;;;0.50;0.50;;;;;;;14.67;52.67;99884.03;6215092;23;20031;-84
2023/09/09 08:12:30;;;;;;;0.50;0.50;;;;;;;14.70;52.50;99887.03;6186970;23;20025;-85
2023/09/09 08:15:08;;;;;;;0.50;0.50;;;;;;;14.93;52.04;99874.31;6203238;23;20095;-83
2023/09/09 08:17:36;;;;;;;0.60;0.60;;;;;;;15.17;52.33;99886.59;6184873;23;20111;-87
2023/09/09 08:20:09;;;;;;;0.60;0.60;;;;;;;15.45;51.43;99882.03;6190059;23;20043;-84
2023/09/09 08:22:36;;;;;;;0.70;0.70;;;;;;;15.64;51.13;99885.19;6115204;23;20025;-87
2023/09/09 08:25:05;;;;;;;0.68;0.68;;;;;;;16.20;50.80;99877.59;6211983;23;20021;-83
2023/09/09 08:27:35;;;;;;;0.55;0.55;;;;;;;16.33;49.90;99875.47;6212951;23;20404;-83
2023/09/09 08:30:11;;;;;;;0.60;0.60;;;;;;;16.01;50.18;99866.25;6164222;23;20079;-83
2023/09/09 08:32:39;;;;;;;0.50;0.50;;;;;;;16.03;50.25;99876.91;6240483;23;20027;-85
2023/09/09 08:35:07;;;;;;;0.50;0.50;;;;;;;16.11;49.91;99876.44;6243580;23;20451;-86
2023/09/09 08:37:35;;;;;;;0.50;0.50;;;;;;;16.08;49.81;99873.38;6243070;23;20090;-83
2023/09/09 08:40:03;;;;;;;0.60;0.60;;;;;;;16.13;49.77;99881.59;6216961;23;20042;-83
2023/09/09 08:42:45;;;;;;;0.60;0.60;;;;;;;15.99;49.29;99879.31;6242688;23;20545;-84
2023/09/09 08:45:31;;;;;;;0.50;0.50;;;;;;;15.46;50.58;99870.06;6243107;23;20443;-84
2023/09/09 08:47:59;;;;;;;0.60;0.60;;;;;;;15.19;51.36;99875.44;6215666;23;20054;-83
2023/09/09 08:50:30;;;;;;;0.50;0.50;;;;;;;14.81;52.15;99874.44;6242655;22;20498;-82
2023/09/09 08:53:02;;;;;;;0.50;0.50;;;;;;;14.91;53.17;99876.44;6192166;23;20111;-83
2023/09/09 08:55:31;;;;;;;0.50;0.50;;;;;;;15.06;53.13;99889.44;6191554;23;20031;-83
2023/09/09 08:58:01;;;;;;;0.50;0.50;;;;;;;15.18;53.17;99888.22;6217023;23;20047;-83
2023/09/09 09:00:34;;;;;;;0.50;0.50;;;;;;;15.15;52.93;99888.75;6216553;23;20086;-83
2023/09/09 09:03:02;;;;;;;0.60;0.60;;;;;;;14.92;52.88;99886.28;6242737;23;20028;-83
2023/09/09 09:05:31;;;;;;;0.50;0.50;;;;;;;14.69;53.87;99890.03;6242698;23;20541;-84
2023/09/09 09:08:00;;;;;;;0.50;0.50;;;;;;;14.50;53.93;99886.72;6243323;23;20052;-83
2023/09/09 09:10:33;;;;;;;0.60;0.60;;;;;;;14.25;54.78;99887.16;6192730;23;20024;-83
2023/09/09 09:13:00;;;;;;;0.50;0.50;;;;;;;14.40;55.40;99887.38;6242874;23;20402;-83
2023/09/09 09:15:32;;;;;;;0.50;0.50;;;;;;;14.58;55.26;99890.94;6242487;23;20103;-83
2023/09/09 09:18:00;;;;;;;0.40;0.40;;;;;;;14.54;55.40;99885.19;6242522;23;20046;-83
2023/09/09 09:20:29;;;;;;;0.50;0.50;;;;;;;14.46;55.19;99896.47;6242199;23;20070;-82
2023/09/09 09:22:58;;;;;;;0.50;0.50;;;;;;;14.25;55.49;99882.53;6191161;23;20016;-83
2023/09/09 09:25:27;;;;;;;0.60;0.60;;;;;;;14.25;55.78;99873.56;6242707;23;20024;-82
2023/09/09 09:27:57;;;;;;;0.50;0.50;;;;;;;14.06;55.56;99881.16;6243767;23;20024;-83
2023/09/09 09:30:26;;;;;;;0.50;0.50;;;;;;;13.98;55.63;99868.00;6223845;23;20020;-83
2023/09/09 09:32:56;;;;;;;0.50;0.50;;;;;;;13.91;56.02;99875.47;6261318;23;20036;-83
2023/09/09 09:35:29;;;;;;;0.60;0.60;;;;;;;13.90;55.48;99857.53;6256756;23;20048;-83
2023/09/09 09:38:00;;;;;;;0.50;0.50;;;;;;;13.91;54.86;99861.91;6248370;23;20074;-83
2023/09/09 09:40:29;;;;;;;0.60;0.60;;;;;;;14.05;54.93;99857.78;6215375;23;20474;-83
2023/09/09 09:42:57;;;;;;;0.60;0.60;;;;;;;14.09;54.21;99865.19;6245162;23;20034;-82
2023/09/09 09:45:28;;;;;;;0.60;0.60;;;;;;;14.19;54.23;99861.00;6215650;23;20028;-82
2023/09/09 09:47:57;;;;;;;0.50;0.50;;;;;;;14.16;54.25;99869.66;6242524;23;20147;-82
2023/09/09 09:50:34;;;;;;;0.60;0.60;;;;;;;14.15;54.99;99865.28;6215597;23;20024;-82
2023/09/09 09:53:02;;;;;;;0.57;0.57;;;;;;;14.44;54.62;99871.44;6245895;23;20051;-82
2023/09/09 09:55:32;;;;;;;0.50;0.50;;;;;;;14.58;54.39;99867.31;6192384;23;20420;-82
2023/09/09 09:58:05;;;;;;;0.50;0.50;;;;;;;14.50;54.12;99868.53;6243479;23;20031;-83
2023/09/09 10:00:33;;;;;;;0.50;0.50;;;;;;;14.41;54.90;99847.50;6243131;23;20491;-82
2023/09/09 10:03:02;;;;;;;0.50;0.50;;;;;;;14.58;55.13;99870.03;6245251;23;20107;-82
2023/09/09 10:05:32;;;;;;;0.50;0.50;;;;;;;14.39;55.05;99869.47;6231460;23;20337;-83
2023/09/09 10:08:12;;;;;;;0.50;0.50;;;;;;;14.32;55.48;99874.22;6230806;23;20020;-82
2023/09/09 10:11:19;;;;;;;0.50;0.50;;;;;;;14.43;55.51;99872.50;6242476;23;20024;-81
2023/09/09 10:14:08;;;;;;;0.50;0.50;;;;;;;14.18;55.81;99868.31;6149461;23;20018;-82
2023/09/09 10:16:36;;;;;;;0.50;0.50;;;;;;;13.79;56.89;99876.34;6150716;23;20120;-83
2023/09/09 10:19:04;;;;;;;0.50;0.50;;;;;;;13.72;57.91;99881.09;6150486;23;20022;-83
2023/09/09 10:21:34;;;;;;;0.40;0.40;;;;;;;13.65;57.66;99875.03;6126369;23;20022;-86
2023/09/09 10:24:12;;;;;;;0.40;0.40;;;;;;;13.56;58.53;99879.19;6151426;23;20049;-82
2023/09/09 10:26:40;;;;;;;0.50;0.50;;;;;;;13.50;58.36;99882.88;6125587;23;20112;-85
2023/09/09 10:29:10;;;;;;;0.50;0.50;;;;;;;13.44;58.63;99871.09;6150095;23;20104;-86
2023/09/09 10:31:39;;;;;;;0.50;0.50;;;;;;;13.55;58.77;99870.22;6150682;23;20025;-83
2023/09/09 10:34:09;;;;;;;0.52;0.52;;;;;;;13.76;58.82;99876.84;6126905;23;20080;-83
2023/09/09 10:36:37;;;;;;;0.50;0.50;;;;;;;13.99;58.15;99865.03;6151255;23;20468;-84
2023/09/09 10:39:24;;;;;;;0.50;0.50;;;;;;;13.93;58.23;99862.50;6149732;23;20028;-83
2023/09/09 10:41:56;;;;;;;0.40;0.40;;;;;;;14.05;58.21;99869.47;6151042;23;20029;-83
2023/09/09 10:44:23;;;;;;;0.50;0.50;;;;;;;13.98;58.28;99868.00;6150941;23;20021;-82
2023/09/09 10:46:55;;;;;;;0.52;0.52;;;;;;;14.00;58.14;99860.41;6127281;23;20075;-82
2023/09/09 10:49:29;;;;;;;0.50;0.50;;;;;;;13.99;58.56;99869.63;6173761;23;20411;-83
2023/09/09 10:51:56;;;;;;;0.60;0.60;;;;;;;13.98;58.50;99870.72;6243823;22;20095;-83
2023/09/09 10:54:25;;;;;;;0.57;0.57;;;;;;;14.08;58.68;99871.69;6244229;23;20082;-82
2023/09/09 10:56:55;;;;;;;0.50;0.50;;;;;;;14.22;58.82;99861.31;6216753;23;20024;-81
2023/09/09 10:59:30;;;;;;;0.50;0.50;;;;;;;14.36;59.04;99878.09;6243080;23;20402;-81
2023/09/09 11:02:19;;;;;;;0.50;0.50;;;;;;;14.39;58.52;99874.88;6217005;23;20020;-83
2023/09/09 11:05:11;;;;;;;0.50;0.50;;;;;;;14.10;59.05;99863.28;6217330;23;20024;-83
2023/09/09 11:07:43;;;;;;;0.50;0.50;;;;;;;13.99;59.72;99866.91;6231976;23;20035;-80
2023/09/09 11:10:15;;;;;;;0.50;0.50;;;;;;;13.86;60.42;99866.16;6243380;23;20027;-82
2023/09/09 11:12:50;;;;;;;0.50;0.50;;;;;;;13.86;60.26;99863.44;6217166;23;20052;-81
2023/09/09 11:15:17;;;;;;;0.50;0.50;;;;;;;13.87;60.75;99873.25;6243626;23;20078;-82
2023/09/09 11:17:45;;;;;;;0.50;0.50;;;;;;;13.96;61.13;99868.22;6243683;23;20027;-83
2023/09/09 11:20:20;;;;;;;0.50;0.50;;;;;;;13.93;60.86;99874.16;6219529;23;20051;-85
2023/09/09 11:22:48;;;;;;;0.50;0.50;;;;;;;13.72;61.55;99864.81;6244443;23;20364;-83
2023/09/09 11:25:16;;;;;;;0.50;0.50;;;;;;;13.64;61.96;99878.78;6243553;23;20225;-83
2023/09/09 11:27:45;;;;;;;0.50;0.50;;;;;;;13.58;62.76;99871.63;6217158;23;20027;-84
2023/09/09 11:30:12;;;;;;;0.50;0.50;;;;;;;13.73;62.45;99871.91;6192415;23;20103;-83
2023/09/09 11:32:39;;;;;;;0.50;0.50;;;;;;;13.76;62.38;99871.41;6243472;23;20047;-83
2023/09/09 11:35:11;;;;;;;0.50;0.50;;;;;;;13.91;62.65;99868.16;6244042;23;20031;-83
2023/09/09 11:37:39;;;;;;;0.40;0.40;;;;;;;14.15;62.02;99865.28;6244060;23;20069;-82
2023/09/09 11:40:08;;;;;;;0.50;0.50;;;;;;;14.24;61.38;99866.50;6192131;23;20660;-84
2023/09/09 11:42:49;;;;;;;0.50;0.50;;;;;;;14.11;61.86;99864.94;6243693;23;20058;-84
2023/09/09 11:45:18;;;;;;;0.50;0.50;;;;;;;14.05;62.09;99863.19;6212191;23;20046;-84
2023/09/09 11:47:45;;;;;;;0.60;0.60;;;;;;;14.35;61.68;99867.47;6217292;23;20024;-84